Bei Facebook empfehlenBei Twitter postenGoogle plusPinterest

Das Wetter im Erzgebirge am 06.06.2017

Wetter und Klima am 06.06.2017 Holzhau im Erzgebirge (630m ü.NN)
Letzte gemessene Temperatur und Uhrzeit der Messung23:45:00 Uhr10.70 °C
Temperatur (Maximum / Höchstwert) und Uhrzeit der Messung14:00:00 Uhr22.90 °C
Temperatur (Minimum / Tiefstwert) und Uhrzeit der Messung21:45:0010.40 °C
Errechneter Absolutwert der Temperaturschwankungen zwischen Tmin und Tmax des Tages12.50 K
Errechnete Tagesmitteltemperatur14.46506 °C
Gesamt - Niederschlag des Tages (in flüssiger Form)1.04 Liter / m²
Luftdruck (Maximum / Höchstwert) und Zeitpunkt der Messung00:00:00 Uhr1008.80 hPa
Luftdruck (Minimum / Tiefstwert) und Zeitpunkt der Messung18:30:00 Uhr1001.20 hPa
Errechneter Absolutwert der Luftdruckschwankungen des Tages7.60 hPa
Höchste gemessene Windgeschwindigkeit und Uhrzeit der Messung15:00:00 Uhr43.92 km/h
Errechnete Windhäufigkeit in Relation zu den Messwerten des Tages14.45783 %
Niedrigste Windkühle (Windchill) und Zeitpunkt der Messung21:45:00 Uhr10.40 °C
Taupunkt (Maximum / Höchstwert) und Uhrzeit der Messung13:45:00 Uhr13.70 °C
Taupunkt (Minimum / Tiefstwert) und Uhrzeit der Messung21:30:008.00 °C
Anzahl der automatisch eingelesenen Messwerte 83

Detaillierte Wetter- und Klima- Messwerte für den 06.06.2017 in Holzhau im Erzgebirge (630m ü.NN)
ZeitTemperaturLuftdruckRel. LuftfeuchteWindWindrichtungWindchillTaupunktNiederschlag l/m²
23:45:0010.70 °C1004.50 hPa84.00 %8.10 °C1.04
23:30:0010.80 °C1004.30 hPa84.00 %8.20 °C1.04
23:15:0010.90 °C1004.30 hPa84.00 %8.30 °C1.04
23:00:0010.90 °C1004.30 hPa86.00 %8.70 °C1.04
22:45:0010.90 °C1004.00 hPa86.00 %8.70 °C0.52
22:30:0010.90 °C1003.90 hPa87.00 %8.80 °C0.52
22:15:0010.80 °C1003.90 hPa88.00 %8.90 °C0.52
22:00:0010.60 °C1003.80 hPa88.00 %8.70 °C0.52
21:45:0010.40 °C1003.70 hPa87.00 %9.00 km/hSW10.40 °C8.30 °C0.52
21:30:0010.40 °C1003.60 hPa85.00 %8.00 °C0.52
21:15:0010.60 °C1003.30 hPa84.00 %8.00 °C0.52
21:00:0010.90 °C1002.90 hPa83.00 %8.10 °C0.52
20:45:0011.70 °C1002.80 hPa81.00 %8.60 °C0.52
20:30:0012.60 °C1002.60 hPa81.00 %9.40 °C0.52
20:15:0013.30 °C1002.50 hPa81.00 %10.10 °C0.52
20:00:0013.60 °C1002.40 hPa82.00 %10.60 °C0.52
19:45:0013.60 °C1001.90 hPa82.00 %10.60 °C0.52
19:30:0013.60 °C1001.60 hPa82.00 %10.60 °C0.52
19:15:0013.40 °C1001.30 hPa82.00 %10.40 °C0.52
19:00:0013.40 °C1001.40 hPa81.00 %10.20 °C0.52
18:45:0013.40 °C1001.40 hPa79.00 %9.80 °C0.52
18:30:0013.80 °C1001.20 hPa78.00 %10.00 °C0.52
18:15:0014.60 °C1001.60 hPa77.00 %10.60 °C0.52
18:00:0015.30 °C1001.70 hPa75.00 %10.90 °C0.52
17:45:0015.90 °C1001.50 hPa76.00 %11.70 °C0.52
17:30:0015.60 °C1001.40 hPa78.00 %11.80 °C0.52
17:15:0015.60 °C1001.50 hPa79.00 %12.00 °C0.52
17:00:0015.50 °C1001.70 hPa78.00 %11.70 °C0.52
16:45:0015.90 °C1002.50 hPa81.00 %41.40 km/hSSW15.50 °C12.60 °C0.52
16:30:0015.60 °C1002.20 hPa79.00 %12.00 °C0.52
16:15:0016.30 °C1002.00 hPa77.00 %12.30 °C0.52
16:00:0016.40 °C1002.00 hPa79.00 %12.80 °C0.52
15:45:0015.80 °C1002.30 hPa80.00 %12.40 °C0.52
15:30:0014.90 °C1002.40 hPa79.00 %11.30 °C0.52
15:15:0014.90 °C1002.60 hPa74.00 %10.30 °C0.52
15:00:0017.50 °C1002.80 hPa66.00 %43.92 km/hSSW17.40 °C11.10 °C 
14:45:0019.90 °C1001.80 hPa62.00 %12.40 °C 
14:30:0021.00 °C1001.90 hPa59.00 %12.70 °C 
14:15:0022.40 °C1002.10 hPa55.00 %12.90 °C 
14:00:0022.90 °C1002.20 hPa55.00 %15.48 km/hS22.90 °C13.40 °C 
13:45:0022.90 °C1002.40 hPa56.00 %32.40 km/hWSW24.10 °C13.70 °C 
13:30:0022.30 °C1002.50 hPa56.00 %18.00 km/hWSW23.70 °C13.10 °C 
13:15:0022.30 °C1002.40 hPa54.00 %12.50 °C 
13:00:0022.50 °C1002.50 hPa55.00 %33.84 km/hSSW23.60 °C13.00 °C 
12:45:0022.20 °C1002.50 hPa55.00 %38.88 km/hSO23.20 °C12.70 °C 
12:30:0022.10 °C1002.50 hPa56.00 %33.84 km/hSW23.10 °C12.90 °C 
09:00:0018.20 °C1003.50 hPa64.00 %27.36 km/hSSO18.70 °C11.30 °C 
08:45:0018.10 °C1003.50 hPa65.00 %11.40 °C 
08:30:0018.10 °C1003.40 hPa64.00 %11.20 °C 
08:15:0018.30 °C1003.10 hPa62.00 %25.92 km/hNNO18.90 °C10.90 °C 
08:00:0018.90 °C1003.20 hPa62.00 %10.44 km/hOSO18.90 °C11.50 °C 
07:45:0018.90 °C1003.30 hPa62.00 %11.50 °C 
07:30:0018.70 °C1003.30 hPa66.00 %12.20 °C 
07:15:0016.20 °C1003.50 hPa76.00 %12.00 °C 
07:00:0012.60 °C1003.50 hPa81.00 %9.40 °C 
06:45:0012.30 °C1003.60 hPa81.00 %9.10 °C 
06:30:0012.40 °C1003.80 hPa81.00 %9.20 °C 
06:15:0012.30 °C1003.80 hPa81.00 %9.10 °C 
06:00:0012.00 °C1004.00 hPa82.00 %9.00 °C 
05:45:0012.10 °C1004.10 hPa82.00 %9.10 °C 
05:30:0012.40 °C1004.30 hPa80.00 %9.10 °C 
05:15:0012.60 °C1004.30 hPa79.00 %9.10 °C 
05:00:0012.60 °C1004.30 hPa80.00 %9.20 °C 
04:45:0012.60 °C1004.30 hPa80.00 %9.20 °C 
04:30:0012.50 °C1004.60 hPa80.00 %9.10 °C 
04:15:0012.40 °C1005.00 hPa81.00 %9.20 °C 
04:00:0012.30 °C1005.20 hPa81.00 %9.10 °C 
03:45:0012.30 °C1005.50 hPa81.00 %9.10 °C 
03:30:0012.30 °C1005.80 hPa82.00 %9.30 °C 
03:15:0012.20 °C1005.90 hPa83.00 %9.40 °C 
03:00:0012.00 °C1006.00 hPa85.00 %9.60 °C 
02:45:0011.90 °C1006.30 hPa86.00 %9.60 °C 
02:30:0011.90 °C1006.40 hPa86.00 %9.60 °C 
02:15:0011.90 °C1006.80 hPa87.00 %9.80 °C 
02:00:0011.90 °C1007.10 hPa87.00 %9.80 °C 
01:45:0011.90 °C1007.30 hPa87.00 %9.80 °C 
01:30:0012.10 °C1007.40 hPa87.00 %10.00 °C 
01:15:0012.10 °C1007.60 hPa88.00 %10.20 °C 
01:00:0011.90 °C1007.80 hPa88.00 %10.00 °C 
00:45:0011.90 °C1008.00 hPa87.00 %9.80 °C 
00:30:0012.10 °C1008.10 hPa87.00 %10.00 °C 
00:15:0012.10 °C1008.60 hPa87.00 %10.00 °C 
00:00:0012.10 °C1008.80 hPa87.00 %10.00 °C 

Permanenter Link zu dieser Seite: Wetter im Erzgebirge am 06.06.2017
Performance-Info: Die Erstellung der Seite / Statistik(en) / Tabelle(n) erforderte 5 Datenbankserver-Abfrage(n) und dauerte 97 Millisekunden. (Dieser Messwert ist von der Gesamt-Auslastung des Servers abhängig.)
Erzgebirge - Wetter | Erzgebirge - Wetter (Mobilgeräte) | Komplette Klimadatenbank